Time;durP1;ratioP1;P1;durP2;ratioP2;P2;SDS_P1;SDS_P2;PMS_P1;PMS_P2;Temp;Humidity;BMP_temperature;BMP_pressure;BME280_temperature;BME280_humidity;BME280_pressure;Samples;Min_cycle;Max_cycle;Signal;HPM_P1;HPM_P2
2021/07/31 00:05:19;;;;;;;2.80;0.90;;;18.90;99.90;;;;;;6716413;88;20828;-77
2021/07/31 00:15:20;;;;;;;3.28;0.90;;;18.50;99.90;;;;;;6706831;88;20392;-78
2021/07/31 00:25:20;;;;;;;5.53;1.00;;;18.30;99.90;;;;;;6726552;88;20194;-77
2021/07/31 00:35:21;;;;;;;3.45;1.00;;;18.20;99.90;;;;;;6712161;88;20197;-78
2021/07/31 00:45:21;;;;;;;2.83;1.10;;;18.30;99.90;;;;;;6706560;88;20288;-77
2021/07/31 00:55:24;;;;;;;2.70;0.83;;;18.20;99.90;;;;;;6702107;88;20182;-77
2021/07/31 01:05:24;;;;;;;3.42;1.00;;;18.10;99.90;;;;;;6703027;88;20192;-77
2021/07/31 01:15:25;;;;;;;3.87;1.00;;;18.00;99.90;;;;;;6712862;88;20263;-76
2021/07/31 01:25:26;;;;;;;1.98;0.82;;;18.00;99.90;;;;;;6718926;88;20562;-77
2021/07/31 01:35:26;;;;;;;4.95;1.00;;;17.90;99.90;;;;;;6708560;88;20308;-78
2021/07/31 01:45:27;;;;;;;2.53;0.82;;;17.80;99.90;;;;;;6702797;88;20226;-77
2021/07/31 01:55:27;;;;;;;4.22;1.00;;;17.90;99.90;;;;;;6701986;88;21116;-77
2021/07/31 02:05:28;;;;;;;2.33;0.90;;;17.80;99.90;;;;;;6702298;88;20232;-78
2021/07/31 02:15:29;;;;;;;3.33;0.80;;;17.70;99.90;;;;;;6711362;88;20720;-76
2021/07/31 02:35:36;;;;;;;3.28;0.98;;;17.40;99.90;;;;;;6767775;88;20639;-82
2021/07/31 02:45:36;;;;;;;3.45;0.95;;;17.20;99.90;;;;;;6766171;88;20177;-82
2021/07/31 02:55:37;;;;;;;2.50;1.10;;;17.10;99.90;;;;;;6745332;88;20197;-82
2021/07/31 03:05:38;;;;;;;4.43;1.58;;;17.10;99.90;;;;;;6749413;88;20157;-81
2021/07/31 03:15:39;;;;;;;6.07;1.00;;;17.10;99.90;;;;;;6749213;88;20646;-82
2021/07/31 03:25:39;;;;;;;2.83;0.90;;;16.90;99.90;;;;;;6751537;88;20612;-81
2021/07/31 03:35:42;;;;;;;4.40;1.42;;;16.90;99.90;;;;;;6751751;88;20165;-82
2021/07/31 03:45:42;;;;;;;3.75;1.15;;;16.80;99.90;;;;;;6747777;88;20198;-81
2021/07/31 03:55:47;;;;;;;2.90;1.05;;;16.70;99.90;;;;;;6751402;88;20229;-83
2021/07/31 04:05:47;;;;;;;3.13;1.00;;;16.70;99.90;;;;;;6714755;88;20302;-81
2021/07/31 04:15:48;;;;;;;6.47;1.12;;;16.50;99.90;;;;;;6749279;88;20196;-83
2021/07/31 04:25:49;;;;;;;5.70;1.23;;;16.50;99.90;;;;;;6750113;88;20265;-82
2021/07/31 04:35:58;;;;;;;4.20;1.12;;;16.50;99.90;;;;;;6728638;88;20158;-81
2021/07/31 04:45:59;;;;;;;3.85;1.25;;;16.50;99.90;;;;;;6729437;88;20193;-82
2021/07/31 04:56:00;;;;;;;5.72;1.30;;;16.70;99.90;;;;;;6730267;88;20210;-82
2021/07/31 05:06:05;;;;;;;5.00;1.20;;;16.80;99.90;;;;;;6745272;88;20169;-83
2021/07/31 05:16:06;;;;;;;;;;;16.80;99.90;;;;;;6749221;88;20495;-83
2021/07/31 05:26:11;;;;;;;4.40;1.48;;;16.80;99.90;;;;;;6748171;88;20057;-82
2021/07/31 05:36:11;;;;;;;4.13;1.50;;;16.80;99.90;;;;;;6711701;88;20175;-82
2021/07/31 05:46:17;;;;;;;2.95;1.33;;;16.70;99.90;;;;;;6712778;88;20201;-83
2021/07/31 05:56:18;;;;;;;3.60;1.45;;;17.00;99.90;;;;;;6711591;88;20159;-82
2021/07/31 06:06:18;;;;;;;7.47;1.70;;;17.20;99.90;;;;;;6740753;88;20215;-82
2021/07/31 06:16:19;;;;;;;5.20;1.70;;;17.40;99.90;;;;;;6728824;88;20166;-81
2021/07/31 06:26:19;;;;;;;5.20;1.90;;;17.50;99.90;;;;;;6727220;88;20190;-83
2021/07/31 06:36:20;;;;;;;3.65;1.70;;;17.70;99.90;;;;;;6734691;88;20254;-82
2021/07/31 06:46:28;;;;;;;3.37;1.33;;;18.50;99.90;;;;;;6747909;88;20178;-83
2021/07/31 06:56:32;;;;;;;4.12;1.58;;;18.70;99.90;;;;;;6750239;88;20165;-82
2021/07/31 07:06:32;;;;;;;5.00;1.50;;;18.60;99.90;;;;;;6751675;88;20180;-82
2021/07/31 07:16:33;;;;;;;2.47;1.12;;;19.00;99.90;;;;;;6752187;88;20244;-83
2021/07/31 07:26:33;;;;;;;4.25;1.40;;;19.20;99.90;;;;;;6714847;88;20202;-83
2021/07/31 07:36:34;;;;;;;2.85;1.37;;;19.40;99.90;;;;;;6719014;88;20169;-82
2021/07/31 07:46:34;;;;;;;3.53;1.52;;;19.70;99.90;;;;;;6729752;88;20232;-82
2021/07/31 07:56:35;;;;;;;2.10;1.15;;;19.40;99.90;;;;;;6711988;88;20166;-83
2021/07/31 08:06:37;;;;;;;2.20;1.15;;;19.70;99.90;;;;;;6746097;88;20169;-82
2021/07/31 08:16:38;;;;;;;4.25;1.50;;;19.30;99.90;;;;;;6751027;88;20160;-84
2021/07/31 08:26:38;;;;;;;6.50;1.30;;;19.70;99.90;;;;;;6750452;88;20162;-83
2021/07/31 08:37:19;;;;;;;3.45;1.30;;;21.30;99.90;;;;;;6751913;77;20268;-77
2021/07/31 08:47:23;;;;;;;3.12;1.30;;;20.90;99.90;;;;;;6745901;88;20298;-79
2021/07/31 08:57:23;;;;;;;5.12;1.25;;;20.40;99.90;;;;;;6718110;88;20198;-78
2021/07/31 09:07:24;;;;;;;3.62;1.15;;;20.00;99.90;;;;;;6716374;88;20197;-79
2021/07/31 09:17:26;;;;;;;3.20;1.30;;;19.70;99.90;;;;;;6729245;88;20656;-80
2021/07/31 09:27:26;;;;;;;5.65;1.37;;;20.20;99.90;;;;;;6722077;88;20222;-79
2021/07/31 09:37:28;;;;;;;3.67;1.10;;;20.50;99.90;;;;;;6726325;88;20601;-79
2021/07/31 09:47:28;;;;;;;4.60;1.60;;;20.00;99.90;;;;;;6729572;88;20190;-78
2021/07/31 09:57:30;;;;;;;2.50;1.10;;;20.10;99.90;;;;;;6740535;88;20217;-79
2021/07/31 10:07:31;;;;;;;2.78;1.23;;;20.80;99.90;;;;;;6734482;88;20214;-78
2021/07/31 10:17:33;;;;;;;2.42;1.02;;;20.80;99.90;;;;;;6738064;88;20234;-78
2021/07/31 10:27:34;;;;;;;2.83;1.20;;;20.50;99.90;;;;;;6739236;88;21066;-77
2021/07/31 10:37:35;;;;;;;3.70;1.23;;;20.30;99.90;;;;;;6741800;88;20326;-77
2021/07/31 10:47:35;;;;;;;2.67;0.90;;;20.60;99.90;;;;;;6739232;88;20600;-77
2021/07/31 10:58:12;;;;;;;2.42;1.10;;;21.30;99.90;;;;;;6734964;88;20212;-78
2021/07/31 11:08:13;;;;;;;4.22;1.00;;;21.00;99.90;;;;;;6738398;88;20212;-76
2021/07/31 11:18:13;;;;;;;2.03;1.10;;;21.00;99.90;;;;;;6737846;88;20732;-78
2021/07/31 11:28:14;;;;;;;2.37;1.10;;;21.00;99.90;;;;;;6738161;88;20249;-76
2021/07/31 11:38:32;;;;;;;2.90;1.20;;;20.50;99.90;;;;;;6739152;88;20207;-78
2021/07/31 11:48:32;;;;;;;1.87;1.00;;;20.20;99.90;;;;;;6739171;88;20234;-80
2021/07/31 11:58:34;;;;;;;4.13;1.20;;;20.70;99.90;;;;;;6738424;88;20202;-76
2021/07/31 12:08:47;;;;;;;3.35;1.10;;;21.10;99.90;;;;;;6741314;88;20270;-78
2021/07/31 12:18:52;;;;;;;2.75;1.20;;;19.60;99.90;;;;;;6735706;88;20191;-77
2021/07/31 12:28:55;;;;;;;;;;;20.60;99.90;;;;;;6736899;88;20185;-77
2021/07/31 12:38:56;;;;;;;3.05;1.20;;;22.50;99.90;;;;;;6738873;88;20061;-77
2021/07/31 12:48:56;;;;;;;3.83;1.10;;;23.00;99.90;;;;;;6747842;88;20187;-77
2021/07/31 12:58:57;;;;;;;2.33;0.70;;;23.00;99.90;;;;;;6738790;88;20334;-77
2021/07/31 13:08:57;;;;;;;1.80;1.00;;;22.90;99.30;;;;;;6763460;88;20188;-77
2021/07/31 13:18:58;;;;;;;2.75;1.12;;;23.10;98.70;;;;;;6737787;88;20192;-77
2021/07/31 13:28:58;;;;;;;3.80;1.45;;;22.20;99.40;;;;;;6736653;88;21059;-77
2021/07/31 13:39:01;;;;;;;3.25;1.15;;;21.90;99.90;;;;;;6736759;88;20210;-77
2021/07/31 13:49:01;;;;;;;2.83;1.27;;;22.20;99.90;;;;;;6735090;88;20194;-77
2021/07/31 13:59:03;;;;;;;5.87;1.25;;;22.90;99.90;;;;;;6734568;88;20653;-77
2021/07/31 14:09:04;;;;;;;2.42;1.10;;;22.30;99.90;;;;;;6734662;88;20670;-76
2021/07/31 14:19:05;;;;;;;2.25;1.02;;;22.50;99.90;;;;;;6734806;88;20201;-78
2021/07/31 14:39:09;;;;;;;1.43;0.90;;;23.70;98.60;;;;;;6755292;88;20235;-82
2021/07/31 14:49:09;;;;;;;2.05;1.00;;;23.90;97.90;;;;;;6751706;88;20770;-82
2021/07/31 14:59:10;;;;;;;2.15;0.90;;;23.30;97.60;;;;;;6751823;88;20255;-82
2021/07/31 15:09:10;;;;;;;5.80;1.00;;;23.00;98.50;;;;;;6756909;88;20197;-82
2021/07/31 15:19:11;;;;;;;2.85;1.15;;;22.40;98.80;;;;;;6757100;88;20196;-82
2021/07/31 15:29:11;;;;;;;3.53;0.90;;;22.30;99.20;;;;;;6755719;88;20663;-82
2021/07/31 15:39:12;;;;;;;5.15;1.08;;;22.70;98.70;;;;;;6756827;88;20663;-81
2021/07/31 15:49:13;;;;;;;3.90;0.80;;;22.70;99.60;;;;;;6752651;88;20792;-82
2021/07/31 15:59:13;;;;;;;2.37;1.00;;;23.00;98.50;;;;;;6763984;88;20216;-82
2021/07/31 16:09:14;;;;;;;2.90;1.05;;;23.60;98.10;;;;;;6764470;88;20191;-82
2021/07/31 16:19:14;;;;;;;2.65;1.20;;;23.60;98.00;;;;;;6759979;88;20173;-81
2021/07/31 16:29:15;;;;;;;3.00;1.00;;;23.30;99.00;;;;;;6761957;88;20676;-83
2021/07/31 16:39:15;;;;;;;2.97;0.93;;;22.40;99.90;;;;;;6762076;88;20194;-82
2021/07/31 16:49:16;;;;;;;3.58;1.20;;;22.20;99.90;;;;;;6764208;88;20176;-82
2021/07/31 16:59:17;;;;;;;4.55;2.42;;;21.90;99.90;;;;;;6762592;88;20153;-82
2021/07/31 17:09:18;;;;;;;5.35;2.08;;;21.80;99.90;;;;;;6759629;88;20181;-81
2021/07/31 17:19:18;;;;;;;2.47;1.40;;;21.70;99.90;;;;;;6756243;88;20369;-81
2021/07/31 17:29:22;;;;;;;3.28;1.20;;;21.70;99.90;;;;;;6759660;88;20233;-81
2021/07/31 17:39:23;;;;;;;2.80;1.27;;;21.30;99.90;;;;;;6760187;88;20188;-81
2021/07/31 17:49:23;;;;;;;3.03;1.20;;;21.10;99.90;;;;;;6761477;88;20196;-82
2021/07/31 17:59:24;;;;;;;2.72;1.40;;;20.90;99.90;;;;;;6765266;88;20178;-82
2021/07/31 18:09:24;;;;;;;2.45;1.40;;;20.60;99.90;;;;;;6762671;88;20185;-82
2021/07/31 18:19:25;;;;;;;3.87;1.37;;;21.00;99.90;;;;;;6764363;88;20889;-82
2021/07/31 18:29:25;;;;;;;3.17;1.37;;;21.10;99.90;;;;;;6763605;88;20198;-82
2021/07/31 18:39:26;;;;;;;2.53;1.55;;;20.60;99.90;;;;;;6755498;88;20218;-81
2021/07/31 18:49:27;;;;;;;2.70;1.37;;;20.70;99.90;;;;;;6752825;88;20207;-81
2021/07/31 18:59:28;;;;;;;2.58;1.62;;;20.40;99.90;;;;;;6758712;88;20192;-83
2021/07/31 19:09:28;;;;;;;2.37;1.63;;;19.80;99.90;;;;;;6759157;88;20189;-82
2021/07/31 19:19:29;;;;;;;2.40;1.37;;;19.60;99.90;;;;;;6759589;88;20562;-82
2021/07/31 19:29:30;;;;;;;3.17;1.40;;;19.30;99.90;;;;;;6759749;88;20200;-82
2021/07/31 19:39:30;;;;;;;2.33;1.30;;;19.10;99.90;;;;;;6756390;88;20297;-82
2021/07/31 19:49:31;;;;;;;2.08;1.10;;;18.90;99.90;;;;;;6726338;88;20279;-82
2021/07/31 19:59:31;;;;;;;3.10;1.20;;;18.80;99.90;;;;;;6690607;89;20192;-81
2021/07/31 20:09:32;;;;;;;4.00;1.35;;;18.60;99.90;;;;;;6691042;89;21099;-83
2021/07/31 20:19:33;;;;;;;2.55;1.60;;;18.50;99.90;;;;;;6710829;88;20288;-83
2021/07/31 20:39:38;;;;;;;4.68;1.65;;;18.20;99.90;;;;;;6712675;88;20739;-79
2021/07/31 20:49:40;;;;;;;5.18;1.65;;;18.10;99.90;;;;;;6711371;88;20216;-79
2021/07/31 20:59:40;;;;;;;6.03;1.70;;;18.00;99.90;;;;;;6708248;88;20580;-79
2021/07/31 21:09:41;;;;;;;2.15;1.52;;;18.00;99.90;;;;;;6711350;88;20205;-79
2021/07/31 21:19:41;;;;;;;3.35;1.52;;;18.10;99.90;;;;;;6708272;88;20193;-78
2021/07/31 21:29:42;;;;;;;2.55;1.67;;;18.20;99.90;;;;;;6708231;88;20693;-79
2021/07/31 21:39:42;;;;;;;2.75;1.45;;;17.90;99.90;;;;;;6727981;88;20197;-79
2021/07/31 21:49:43;;;;;;;5.68;1.98;;;17.70;99.90;;;;;;6727882;88;20196;-79
2021/07/31 21:59:43;;;;;;;4.15;1.62;;;17.50;99.90;;;;;;6727973;88;20237;-79
2021/07/31 22:09:44;;;;;;;3.50;2.08;;;17.30;99.90;;;;;;6727128;88;20680;-79
2021/07/31 22:19:45;;;;;;;4.45;2.10;;;17.00;99.90;;;;;;6722263;88;20226;-78
2021/07/31 22:29:45;;;;;;;4.45;2.40;;;17.10;99.90;;;;;;6724477;88;20667;-79
2021/07/31 22:39:46;;;;;;;3.90;2.05;;;17.30;99.90;;;;;;6725509;88;20214;-80
2021/07/31 22:49:46;;;;;;;3.72;1.98;;;17.20;99.90;;;;;;6725899;88;20728;-79
2021/07/31 22:59:47;;;;;;;5.72;1.90;;;17.10;99.90;;;;;;6725493;88;20202;-79
2021/07/31 23:09:47;;;;;;;4.65;2.42;;;17.10;99.90;;;;;;6724791;88;21005;-78
2021/07/31 23:19:48;;;;;;;5.82;2.30;;;16.90;99.90;;;;;;6723714;88;20664;-79
2021/07/31 23:29:48;;;;;;;3.25;1.73;;;16.70;99.90;;;;;;6723969;88;20802;-79
2021/07/31 23:39:49;;;;;;;5.80;2.33;;;16.60;99.90;;;;;;6725658;88;20225;-78
2021/07/31 23:49:50;;;;;;;3.90;2.50;;;16.70;99.90;;;;;;6723971;88;20207;-79
2021/07/31 23:59:50;;;;;;;3.93;2.40;;;16.60;99.90;;;;;;6727670;88;20330;-78
